createdAt,value
2022-09-24T00:01:24.405Z,2.17
2022-09-24T00:03:53.706Z,2.35
2022-09-24T00:06:21.234Z,2.30
2022-09-24T00:08:50.213Z,1.73
2022-09-24T00:11:19.756Z,1.90
2022-09-24T00:13:50.719Z,1.90
2022-09-24T00:16:18.985Z,1.48
2022-09-24T00:21:12.174Z,1.70
2022-09-24T00:23:38.910Z,1.55
2022-09-24T00:26:24.010Z,2.13
2022-09-24T00:28:51.848Z,1.80
2022-09-24T00:31:18.496Z,1.88
2022-09-24T00:33:45.100Z,1.88
2022-09-24T00:36:11.616Z,2.10
2022-09-24T00:38:38.176Z,2.10
2022-09-24T00:41:04.839Z,2.05
2022-09-24T00:43:36.754Z,2.05
2022-09-24T00:46:15.467Z,1.67
2022-09-24T00:48:42.939Z,1.88
2022-09-24T00:51:13.395Z,2.10
2022-09-24T00:53:40.898Z,2.08
2022-09-24T00:56:11.225Z,2.13
2022-09-24T00:58:38.477Z,2.20
2022-09-24T01:01:06.297Z,2.10
2022-09-24T01:03:40.993Z,2.10
2022-09-24T01:06:08.890Z,1.80
2022-09-24T01:08:35.546Z,1.92
2022-09-24T01:11:35.828Z,2.53
2022-09-24T01:14:03.375Z,2.42
2022-09-24T01:17:08.664Z,2.22
2022-09-24T01:20:13.053Z,2.47
2022-09-24T01:22:58.564Z,1.95
2022-09-24T01:25:47.625Z,2.20
2022-09-24T01:28:48.249Z,2.33
2022-09-24T01:31:19.210Z,2.00
2022-09-24T01:33:47.820Z,2.20
2022-09-24T01:36:15.531Z,2.05
2022-09-24T01:38:44.321Z,2.35
2022-09-24T01:41:12.229Z,1.95
2022-09-24T01:43:39.193Z,2.70
2022-09-24T01:46:06.953Z,2.50
2022-09-24T01:48:37.133Z,2.05
2022-09-24T01:51:22.450Z,2.22
2022-09-24T01:54:05.337Z,2.38
2022-09-24T01:56:41.042Z,2.05
2022-09-24T01:59:12.649Z,2.30
2022-09-24T02:02:18.390Z,2.15
2022-09-24T02:04:49.278Z,1.75
2022-09-24T02:07:22.894Z,2.60
2022-09-24T02:09:49.762Z,2.53
2022-09-24T02:12:32.907Z,2.55
2022-09-24T02:15:08.048Z,2.25
2022-09-24T02:17:37.122Z,2.60
2022-09-24T02:20:08.734Z,2.30
2022-09-24T02:22:35.385Z,2.70
2022-09-24T02:25:04.536Z,2.95
2022-09-24T02:27:31.206Z,2.53
2022-09-24T02:29:58.804Z,2.20
2022-09-24T02:32:28.341Z,2.03
2022-09-24T02:35:01.920Z,2.55
2022-09-24T02:37:29.307Z,2.25
2022-09-24T02:39:55.999Z,2.45
2022-09-24T02:42:22.713Z,2.13
2022-09-24T02:44:49.312Z,2.60
2022-09-24T02:47:15.881Z,2.83
2022-09-24T02:49:42.648Z,2.10
2022-09-24T02:52:10.342Z,2.50
2022-09-24T02:54:39.158Z,2.92
2022-09-24T02:57:05.799Z,2.53
2022-09-24T02:59:32.437Z,2.20
2022-09-24T03:01:59.111Z,2.17
2022-09-24T03:04:26.342Z,1.95
2022-09-24T03:06:53.412Z,2.05
2022-09-24T03:09:19.978Z,2.40
2022-09-24T03:11:47.436Z,2.35
2022-09-24T03:14:14.011Z,2.70
2022-09-24T03:16:40.532Z,2.25
2022-09-24T03:19:07.462Z,2.50
2022-09-24T03:21:34.145Z,2.63
2022-09-24T03:24:00.735Z,2.42
2022-09-24T03:26:27.313Z,2.53
2022-09-24T03:28:53.864Z,2.38
2022-09-24T03:31:20.900Z,2.72
2022-09-24T03:33:49.284Z,2.67
2022-09-24T03:38:45.506Z,2.42
2022-09-24T03:41:15.907Z,2.65
2022-09-24T03:43:42.716Z,2.25
2022-09-24T03:46:09.947Z,2.08
2022-09-24T03:48:38.527Z,2.35
2022-09-24T03:51:11.585Z,3.13
2022-09-24T03:53:38.756Z,2.95
2022-09-24T03:56:06.608Z,1.83
2022-09-24T03:58:36.101Z,2.60
2022-09-24T04:01:02.700Z,2.72
2022-09-24T04:03:29.471Z,2.08
2022-09-24T04:05:56.105Z,2.10
2022-09-24T04:08:23.592Z,2.45
2022-09-24T04:10:50.858Z,2.67
2022-09-24T04:13:18.426Z,2.58
2022-09-24T04:15:45.294Z,2.30
2022-09-24T04:18:11.987Z,2.60
2022-09-24T04:20:38.628Z,2.85
2022-09-24T04:23:05.358Z,2.50
2022-09-24T04:25:32.518Z,2.45
2022-09-24T04:28:02.196Z,2.40
2022-09-24T04:30:30.327Z,2.72
2022-09-24T04:33:00.814Z,2.70
2022-09-24T04:35:29.770Z,2.80
2022-09-24T04:37:57.184Z,2.50
2022-09-24T04:40:23.800Z,2.33
2022-09-24T04:42:50.455Z,2.70
2022-09-24T04:45:19.223Z,2.22
2022-09-24T04:47:53.590Z,3.00
2022-09-24T04:50:20.777Z,2.67
2022-09-24T04:52:53.199Z,3.22
2022-09-24T04:55:20.737Z,2.80
2022-09-24T04:57:47.781Z,2.60
2022-09-24T05:00:17.627Z,2.45
2022-09-24T05:02:44.565Z,2.38
2022-09-24T05:05:12.369Z,2.78
2022-09-24T05:07:39.353Z,2.90
2022-09-24T05:10:06.706Z,3.05
2022-09-24T05:12:35.358Z,2.47
2022-09-24T05:15:02.171Z,2.45
2022-09-24T05:17:28.832Z,2.72
2022-09-24T05:19:57.783Z,3.20
2022-09-24T05:22:26.154Z,2.95
2022-09-24T05:27:21.646Z,2.33
2022-09-24T05:29:48.275Z,3.25
2022-09-24T05:32:17.318Z,2.65
2022-09-24T05:34:44.649Z,2.65
2022-09-24T05:37:12.437Z,3.35
2022-09-24T05:39:39.009Z,2.97
2022-09-24T05:42:06.888Z,3.33
2022-09-24T05:44:33.556Z,2.50
2022-09-24T05:47:00.216Z,2.60
2022-09-24T05:49:26.828Z,2.60
2022-09-24T05:51:53.388Z,2.90
2022-09-24T05:54:19.998Z,2.53
2022-09-24T05:56:46.955Z,2.80
2022-09-24T05:59:13.489Z,3.15
2022-09-24T06:01:40.444Z,2.72
2022-09-24T06:04:09.151Z,2.65
2022-09-24T06:06:35.927Z,3.58
2022-09-24T06:09:02.782Z,2.47
2022-09-24T06:11:39.839Z,2.60
2022-09-24T06:14:07.501Z,2.65
2022-09-24T06:16:34.547Z,2.90
2022-09-24T06:19:01.501Z,2.70
2022-09-24T06:21:28.175Z,2.75
2022-09-24T06:23:54.758Z,3.20
2022-09-24T06:26:21.343Z,2.63
2022-09-24T06:28:47.931Z,3.13
2022-09-24T06:31:14.776Z,3.00
2022-09-24T06:33:42.448Z,2.97
2022-09-24T06:36:09.366Z,2.95
2022-09-24T06:38:36.463Z,3.67
2022-09-24T06:41:05.146Z,3.67
2022-09-24T06:43:32.453Z,4.10
2022-09-24T06:45:59.935Z,3.65
2022-09-24T06:48:27.323Z,3.92
2022-09-24T06:50:54.812Z,3.58
2022-09-24T06:53:21.743Z,4.47
2022-09-24T06:55:49.002Z,3.90
2022-09-24T06:58:20.856Z,4.10
2022-09-24T07:01:07.157Z,4.72
2022-09-24T07:03:34.929Z,3.95
2022-09-24T07:06:04.463Z,4.28
2022-09-24T07:08:31.604Z,4.78
2022-09-24T07:10:58.341Z,4.32
2022-09-24T07:13:25.411Z,4.07
2022-09-24T07:15:52.917Z,4.30
2022-09-24T07:18:20.513Z,3.97
2022-09-24T07:20:54.624Z,4.78
2022-09-24T07:23:21.908Z,4.30
2022-09-24T07:25:48.947Z,4.30
2022-09-24T07:28:15.921Z,3.75
2022-09-24T07:30:42.563Z,3.70
2022-09-24T07:33:09.138Z,3.72
2022-09-24T07:35:39.065Z,4.57
2022-09-24T07:38:08.113Z,3.33
2022-09-24T07:40:34.736Z,4.15
2022-09-24T07:43:12.498Z,4.05
2022-09-24T07:45:39.337Z,3.65
2022-09-24T07:48:06.199Z,3.92
2022-09-24T07:50:38.663Z,4.03
2022-09-24T07:53:06.425Z,3.67
2022-09-24T07:55:39.356Z,3.95
2022-09-24T07:58:07.367Z,4.55
2022-09-24T08:00:33.927Z,4.43
2022-09-24T08:03:02.040Z,3.45
2022-09-24T08:05:28.716Z,3.85
2022-09-24T08:07:56.995Z,3.95
2022-09-24T08:10:24.688Z,3.67
2022-09-24T08:12:51.278Z,4.97
2022-09-24T08:15:18.331Z,3.97
2022-09-24T08:17:44.985Z,4.22
2022-09-24T08:20:12.269Z,3.97
2022-09-24T08:22:38.897Z,4.15
2022-09-24T08:25:06.188Z,4.47
2022-09-24T08:27:34.641Z,4.78
2022-09-24T08:30:01.279Z,4.18
2022-09-24T08:32:29.421Z,4.00
2022-09-24T08:34:55.988Z,4.07
2022-09-24T08:37:27.935Z,4.85
2022-09-24T08:39:54.879Z,4.75
2022-09-24T08:42:37.119Z,3.65
2022-09-24T08:45:23.756Z,3.92
2022-09-24T08:48:00.658Z,3.15
2022-09-24T08:50:34.539Z,3.40
2022-09-24T08:53:12.670Z,3.13
2022-09-24T08:55:52.128Z,3.80
2022-09-24T08:58:34.107Z,3.60
2022-09-24T09:01:10.073Z,4.22
2022-09-24T09:04:11.237Z,4.80
2022-09-24T09:07:08.486Z,4.65
2022-09-24T09:09:56.428Z,4.47
2022-09-24T09:12:31.573Z,4.45
2022-09-24T09:15:05.517Z,4.75
2022-09-24T09:17:42.408Z,4.32
2022-09-24T09:20:18.420Z,4.45
2022-09-24T09:22:48.762Z,4.25
2022-09-24T09:25:19.721Z,5.32
2022-09-24T09:27:49.911Z,4.45
2022-09-24T09:30:18.200Z,5.53
2022-09-24T09:33:00.818Z,5.95
2022-09-24T09:35:37.439Z,5.28
2022-09-24T09:38:23.528Z,5.50
2022-09-24T09:40:56.216Z,5.03
2022-09-24T09:43:22.791Z,3.90
2022-09-24T09:46:15.986Z,4.50
2022-09-24T09:48:47.342Z,3.22
2022-09-24T09:51:23.357Z,3.85
2022-09-24T09:54:01.750Z,4.20
2022-09-24T09:56:34.862Z,4.30
2022-09-24T09:59:06.750Z,4.22
2022-09-24T10:01:35.386Z,4.95
2022-09-24T10:04:04.506Z,5.60
2022-09-24T10:06:33.521Z,5.22
2022-09-24T10:09:15.625Z,5.82
2022-09-24T10:11:42.588Z,5.53
2022-09-24T10:14:11.247Z,4.47
2022-09-24T10:16:43.208Z,5.93
2022-09-24T10:19:36.607Z,5.03
2022-09-24T10:22:24.290Z,5.15
2022-09-24T10:24:51.663Z,5.15
2022-09-24T10:27:27.333Z,5.25
2022-09-24T10:30:13.354Z,5.50
2022-09-24T10:32:40.548Z,5.80
2022-09-24T10:35:29.363Z,5.25
2022-09-24T10:38:00.516Z,5.65
2022-09-24T10:40:45.968Z,5.07
2022-09-24T10:46:54.733Z,4.45
2022-09-24T10:49:29.436Z,5.35
2022-09-24T10:52:32.950Z,4.80
2022-09-24T10:55:17.906Z,4.82
2022-09-24T10:58:02.914Z,5.25
2022-09-24T11:00:58.274Z,4.80
2022-09-24T11:04:02.418Z,5.40
2022-09-24T11:06:46.464Z,5.65
2022-09-24T11:09:24.962Z,4.80
2022-09-24T11:12:20.521Z,5.05
2022-09-24T11:15:11.030Z,5.57
2022-09-24T11:17:45.846Z,5.13
2022-09-24T11:20:21.487Z,4.53
2022-09-24T11:22:56.791Z,5.47
2022-09-24T11:25:29.744Z,6.22
2022-09-24T11:28:06.132Z,5.88
2022-09-24T11:30:47.776Z,6.50
2022-09-24T11:33:39.042Z,6.97
2022-09-24T11:36:26.813Z,5.93
2022-09-24T11:39:04.498Z,5.78
2022-09-24T11:41:45.299Z,6.30
2022-09-24T11:44:37.682Z,7.90
2022-09-24T11:47:34.168Z,6.22
2022-09-24T11:50:03.329Z,6.35
2022-09-24T11:52:41.340Z,6.15
2022-09-24T11:55:16.964Z,5.90
2022-09-24T11:57:48.960Z,5.63
2022-09-24T12:00:17.748Z,5.43
2022-09-24T12:03:01.046Z,6.57
2022-09-24T12:05:44.569Z,5.40
2022-09-24T12:08:48.562Z,5.90
2022-09-24T12:11:23.138Z,5.63
2022-09-24T12:13:52.174Z,5.47
2022-09-24T12:16:22.139Z,28.90
2022-09-24T12:19:10.193Z,34.55
2022-09-24T12:21:43.147Z,40.80
2022-09-24T12:24:28.299Z,23.27
2022-09-24T12:26:57.769Z,14.20
2022-09-24T12:29:55.430Z,10.57
2022-09-24T12:32:46.351Z,10.82
2022-09-24T12:35:19.171Z,9.38
2022-09-24T12:37:47.456Z,8.82
2022-09-24T12:40:20.333Z,8.15
2022-09-24T12:42:50.085Z,9.18
2022-09-24T12:45:21.037Z,5.93
2022-09-24T12:47:51.442Z,4.80
2022-09-24T12:50:24.756Z,6.15
2022-09-24T12:52:51.479Z,5.97
2022-09-24T12:55:22.772Z,5.82
2022-09-24T12:57:54.956Z,5.35
2022-09-24T13:00:38.707Z,5.57
2022-09-24T13:03:06.694Z,6.25
2022-09-24T13:05:46.163Z,6.53
2022-09-24T13:08:22.591Z,6.63
2022-09-24T13:11:05.747Z,6.00
2022-09-24T13:13:36.992Z,5.95
2022-09-24T13:16:06.328Z,6.45
2022-09-24T13:18:35.340Z,6.68
2022-09-24T13:21:05.877Z,6.25
2022-09-24T13:23:38.687Z,6.20
2022-09-24T13:26:07.477Z,6.60
2022-09-24T13:28:48.527Z,6.80
2022-09-24T13:31:21.376Z,5.18
2022-09-24T13:33:56.980Z,5.53
2022-09-24T13:36:28.410Z,6.90
2022-09-24T13:39:07.866Z,5.25
2022-09-24T13:41:40.655Z,5.63
2022-09-24T13:44:56.604Z,5.13
2022-09-24T13:47:28.197Z,5.50
2022-09-24T13:50:15.846Z,5.80
2022-09-24T13:55:23.137Z,5.90
2022-09-24T13:57:49.709Z,5.32
2022-09-24T14:00:21.633Z,5.40
2022-09-24T14:03:05.153Z,5.63
2022-09-24T14:05:38.479Z,5.40
2022-09-24T14:08:11.609Z,4.78
2022-09-24T14:10:40.006Z,4.55
2022-09-24T14:13:23.944Z,5.05
2022-09-24T14:15:54.417Z,5.25
2022-09-24T14:18:21.995Z,5.68
2022-09-24T14:20:55.549Z,5.22
2022-09-24T14:23:24.139Z,4.63
2022-09-24T14:25:51.824Z,5.15
2022-09-24T14:28:19.135Z,4.88
2022-09-24T14:30:53.908Z,4.60
2022-09-24T14:35:50.601Z,4.65
2022-09-24T14:38:29.961Z,5.20
2022-09-24T14:41:05.733Z,4.72
2022-09-24T14:43:39.224Z,4.50
2022-09-24T14:46:27.735Z,5.07
2022-09-24T14:49:19.049Z,3.85
2022-09-24T14:52:03.164Z,5.30
2022-09-24T14:54:42.300Z,4.97
2022-09-24T14:57:18.889Z,3.72
2022-09-24T14:59:46.586Z,5.53
2022-09-24T15:02:25.385Z,5.72
2022-09-24T15:04:54.906Z,5.10
2022-09-24T15:07:25.973Z,5.57
2022-09-24T15:09:54.804Z,4.30
2022-09-24T15:12:32.499Z,4.25
2022-09-24T15:15:22.295Z,5.03
2022-09-24T15:17:48.832Z,5.68
2022-09-24T15:20:15.590Z,5.10
2022-09-24T15:22:42.192Z,5.32
2022-09-24T15:25:09.254Z,5.22
2022-09-24T15:27:39.609Z,4.53
2022-09-24T15:30:07.996Z,4.18
2022-09-24T15:32:35.905Z,5.47
2022-09-24T15:35:08.336Z,5.20
2022-09-24T15:37:38.038Z,4.40
2022-09-24T15:40:10.018Z,4.78
2022-09-24T15:42:36.712Z,5.85
2022-09-24T15:45:03.586Z,4.65
2022-09-24T15:47:30.165Z,4.75
2022-09-24T15:49:56.729Z,5.13
2022-09-24T15:52:32.165Z,6.10
2022-09-24T15:55:01.201Z,4.93
2022-09-24T15:57:27.756Z,5.78
2022-09-24T15:59:54.356Z,5.10
2022-09-24T16:02:27.316Z,5.18
2022-09-24T16:04:53.931Z,5.07
2022-09-24T16:07:20.627Z,4.65
2022-09-24T16:09:47.166Z,5.15
2022-09-24T16:12:17.866Z,4.35
2022-09-24T16:14:44.636Z,4.40
2022-09-24T16:17:11.641Z,4.78
2022-09-24T16:19:38.317Z,4.97
2022-09-24T16:22:05.266Z,4.97
2022-09-24T16:24:32.902Z,5.05
2022-09-24T16:26:59.476Z,3.78
2022-09-24T16:29:26.128Z,4.82
2022-09-24T16:31:52.678Z,4.22
2022-09-24T16:34:19.288Z,4.38
2022-09-24T16:36:46.050Z,5.10
2022-09-24T16:39:12.782Z,4.07
2022-09-24T16:41:39.614Z,4.82
2022-09-24T16:44:06.890Z,4.38
2022-09-24T16:46:33.486Z,4.85
2022-09-24T16:49:00.086Z,5.63
2022-09-24T16:51:26.661Z,4.28
2022-09-24T16:53:56.347Z,5.03
2022-09-24T16:56:23.419Z,4.93
2022-09-24T16:58:50.564Z,5.50
2022-09-24T17:01:19.348Z,5.20
2022-09-24T17:03:59.455Z,4.82
2022-09-24T17:06:28.953Z,6.20
2022-09-24T17:09:14.602Z,5.82
2022-09-24T17:11:41.908Z,5.78
2022-09-24T17:14:10.924Z,6.60
2022-09-24T17:16:37.777Z,6.25
2022-09-24T17:19:04.557Z,5.05
2022-09-24T17:21:31.155Z,5.88
2022-09-24T17:23:57.763Z,5.80
2022-09-24T17:26:25.035Z,6.10
2022-09-24T17:28:53.845Z,5.43
2022-09-24T17:31:22.964Z,5.90
2022-09-24T17:34:04.664Z,5.07
2022-09-24T17:36:32.851Z,5.30
2022-09-24T17:39:00.115Z,6.00
2022-09-24T17:41:28.688Z,5.13
2022-09-24T17:43:59.493Z,4.72
2022-09-24T17:46:28.362Z,4.78
2022-09-24T17:48:57.118Z,4.88
2022-09-24T17:51:26.734Z,6.03
2022-09-24T17:53:54.743Z,4.88
2022-09-24T17:56:24.227Z,5.65
2022-09-24T17:58:52.344Z,5.93
2022-09-24T18:01:24.573Z,5.00
2022-09-24T18:03:58.205Z,5.03
2022-09-24T18:06:29.393Z,4.75
2022-09-24T18:09:00.138Z,4.35
2022-09-24T18:11:29.618Z,4.68
2022-09-24T18:13:58.351Z,5.28
2022-09-24T18:16:27.339Z,5.43
2022-09-24T18:18:53.935Z,5.28
2022-09-24T18:21:22.750Z,5.45
2022-09-24T18:23:53.867Z,4.95
2022-09-24T18:26:35.185Z,5.68
2022-09-24T18:29:04.266Z,5.88
2022-09-24T18:31:31.314Z,4.75
2022-09-24T18:34:05.697Z,4.68
2022-09-24T18:36:39.593Z,4.45
2022-09-24T18:39:08.415Z,5.78
2022-09-24T18:41:36.091Z,4.93
2022-09-24T18:44:03.560Z,6.20
2022-09-24T18:46:31.137Z,4.90
2022-09-24T18:48:59.379Z,5.38
2022-09-24T18:51:27.269Z,6.05
2022-09-24T18:53:59.133Z,5.60
2022-09-24T18:56:26.054Z,5.35
2022-09-24T18:58:59.703Z,5.70
2022-09-24T19:01:27.012Z,4.60
2022-09-24T19:04:00.034Z,5.47
2022-09-24T19:06:27.588Z,5.13
2022-09-24T19:08:54.059Z,5.60
2022-09-24T19:11:21.388Z,5.88
2022-09-24T19:13:50.550Z,5.05
2022-09-24T19:16:18.544Z,5.78
2022-09-24T19:18:45.143Z,6.07
2022-09-24T19:21:14.001Z,4.93
2022-09-24T19:23:46.196Z,6.40
2022-09-24T19:26:15.202Z,5.78
2022-09-24T19:28:42.653Z,5.03
2022-09-24T19:31:16.328Z,5.40
2022-09-24T19:33:44.042Z,5.28
2022-09-24T19:36:10.983Z,5.85
2022-09-24T19:38:37.909Z,5.60
2022-09-24T19:41:04.726Z,5.60
2022-09-24T19:43:34.349Z,6.50
2022-09-24T19:46:06.473Z,6.40
2022-09-24T19:48:37.529Z,6.57
2022-09-24T19:51:06.426Z,5.85
2022-09-24T19:53:32.993Z,5.70
2022-09-24T19:56:00.289Z,6.18
2022-09-24T19:58:27.449Z,5.30
2022-09-24T20:00:54.653Z,6.07
2022-09-24T20:03:21.197Z,5.80
2022-09-24T20:05:47.720Z,33.45
2022-09-24T20:08:14.739Z,71.43
2022-09-24T20:10:41.934Z,104.07
2022-09-24T20:13:10.553Z,57.15
2022-09-24T20:15:41.361Z,35.55
2022-09-24T20:18:11.649Z,20.75
2022-09-24T20:20:39.799Z,16.20
2022-09-24T20:23:08.220Z,12.80
2022-09-24T20:28:20.098Z,7.07
2022-09-24T20:30:46.615Z,8.30
2022-09-24T20:33:13.390Z,7.57
2022-09-24T20:35:42.027Z,7.18
2022-09-24T20:38:09.312Z,7.47
2022-09-24T20:40:38.913Z,7.28
2022-09-24T20:43:05.437Z,6.88
2022-09-24T20:45:33.085Z,7.55
2022-09-24T20:48:00.471Z,8.02
2022-09-24T20:50:27.051Z,7.22
2022-09-24T20:52:53.509Z,9.10
2022-09-24T20:55:19.978Z,7.53
2022-09-24T20:57:47.001Z,8.13
2022-09-24T21:00:14.939Z,7.50
2022-09-24T21:02:41.963Z,8.05
2022-09-24T21:05:11.569Z,6.97
2022-09-24T21:07:42.590Z,7.65
2022-09-24T21:10:10.681Z,6.68
2022-09-24T21:12:38.288Z,5.57
2022-09-24T21:15:08.712Z,4.60
2022-09-24T21:17:35.298Z,3.65
2022-09-24T21:20:02.303Z,3.22
2022-09-24T21:22:29.225Z,3.78
2022-09-24T21:24:56.170Z,3.15
2022-09-24T21:27:22.733Z,3.35
2022-09-24T21:29:49.366Z,3.63
2022-09-24T21:32:17.365Z,3.70
2022-09-24T21:34:44.618Z,5.15
2022-09-24T21:37:14.835Z,4.50
2022-09-24T21:39:43.064Z,3.58
2022-09-24T21:42:09.684Z,6.05
2022-09-24T21:44:36.354Z,4.15
2022-09-24T21:47:03.399Z,3.50
2022-09-24T21:49:36.418Z,5.20
2022-09-24T21:52:05.071Z,5.88
2022-09-24T21:54:33.404Z,5.85
2022-09-24T21:59:45.353Z,4.80
2022-09-24T22:02:12.201Z,6.32
2022-09-24T22:04:39.186Z,5.93
2022-09-24T22:07:05.737Z,6.43
2022-09-24T22:09:32.545Z,5.30
2022-09-24T22:12:00.669Z,5.93
2022-09-24T22:14:27.381Z,6.45
2022-09-24T22:16:54.633Z,6.05
2022-09-24T22:19:21.177Z,6.30
2022-09-24T22:21:47.767Z,6.72
2022-09-24T22:24:15.242Z,6.63
2022-09-24T22:26:41.818Z,6.93
2022-09-24T22:29:08.578Z,7.63
2022-09-24T22:31:35.123Z,8.07
2022-09-24T22:34:19.989Z,7.13
2022-09-24T22:36:47.918Z,6.22
2022-09-24T22:39:15.511Z,6.43
2022-09-24T22:41:43.258Z,8.23
2022-09-24T22:44:11.209Z,7.20
2022-09-24T22:46:38.160Z,8.77
2022-09-24T22:49:05.516Z,8.38
2022-09-24T22:51:33.617Z,7.90
2022-09-24T22:54:00.285Z,8.23
2022-09-24T22:56:27.616Z,9.07
2022-09-24T22:58:59.637Z,8.40
2022-09-24T23:01:28.768Z,8.50
2022-09-24T23:03:56.321Z,9.00
2022-09-24T23:06:24.453Z,8.10
2022-09-24T23:08:52.671Z,7.80
2022-09-24T23:11:37.594Z,9.05
2022-09-24T23:14:12.354Z,8.25
2022-09-24T23:19:07.927Z,8.18
2022-09-24T23:21:35.048Z,8.23
2022-09-24T23:24:07.591Z,9.05
2022-09-24T23:26:34.822Z,7.57
2022-09-24T23:29:01.459Z,8.13
2022-09-24T23:31:34.280Z,8.27
2022-09-24T23:34:01.285Z,7.05
2022-09-24T23:36:30.950Z,8.30
2022-09-24T23:38:58.599Z,7.53
2022-09-24T23:41:26.019Z,8.98
2022-09-24T23:43:52.578Z,8.65
2022-09-24T23:46:19.309Z,8.20
2022-09-24T23:48:45.911Z,8.68
2022-09-24T23:51:12.469Z,8.27
2022-09-24T23:53:39.058Z,7.93
2022-09-24T23:56:06.881Z,7.63
2022-09-24T23:58:33.522Z,9.05
